createdAt,value
2022-12-11T00:01:30.778Z,75.30
2022-12-11T00:03:59.850Z,62.45
2022-12-11T00:06:28.087Z,62.72
2022-12-11T00:08:56.823Z,59.13
2022-12-11T00:11:25.776Z,60.30
2022-12-11T00:13:55.546Z,61.20
2022-12-11T00:16:26.860Z,55.15
2022-12-11T00:18:58.896Z,51.53
2022-12-11T00:21:27.449Z,54.20
2022-12-11T00:24:00.718Z,49.90
2022-12-11T00:26:28.983Z,56.90
2022-12-11T00:29:01.209Z,59.20
2022-12-11T00:31:31.056Z,59.83
2022-12-11T00:33:59.677Z,52.30
2022-12-11T00:36:31.361Z,49.25
2022-12-11T00:39:01.118Z,52.08
2022-12-11T00:41:31.734Z,56.28
2022-12-11T00:44:01.619Z,57.67
2022-12-11T00:46:41.086Z,47.58
2022-12-11T00:49:12.377Z,51.38
2022-12-11T00:51:42.899Z,47.53
2022-12-11T00:54:12.535Z,47.05
2022-12-11T00:56:44.316Z,46.40
2022-12-11T00:59:17.738Z,46.15
2022-12-11T01:01:46.110Z,48.00
2022-12-11T01:04:16.253Z,46.03
2022-12-11T01:06:52.358Z,50.90
2022-12-11T01:09:39.616Z,47.92
2022-12-11T01:12:08.366Z,49.83
2022-12-11T01:14:38.124Z,48.75
2022-12-11T01:17:08.146Z,52.42
2022-12-11T01:19:37.462Z,48.47
2022-12-11T01:22:10.673Z,55.03
2022-12-11T01:24:39.134Z,55.10
2022-12-11T01:27:12.469Z,50.33
2022-12-11T01:29:44.916Z,55.97
2022-12-11T01:32:13.794Z,54.03
2022-12-11T01:34:44.569Z,50.60
2022-12-11T01:37:15.961Z,59.80
2022-12-11T01:39:43.941Z,51.67
2022-12-11T01:42:21.074Z,51.17
2022-12-11T01:45:27.444Z,56.15
2022-12-11T01:48:03.373Z,43.55
2022-12-11T01:50:40.560Z,53.78
2022-12-11T01:53:15.388Z,52.58
2022-12-11T01:55:46.299Z,41.00
2022-12-11T01:58:17.989Z,49.30
2022-12-11T02:00:46.609Z,52.38
2022-12-11T02:03:18.027Z,51.22
2022-12-11T02:05:52.313Z,50.47
2022-12-11T02:08:22.013Z,54.13
2022-12-11T02:11:06.189Z,51.42
2022-12-11T02:13:41.304Z,47.95
2022-12-11T02:18:56.839Z,45.40
2022-12-11T02:21:27.836Z,53.47
2022-12-11T02:24:22.938Z,48.60
2022-12-11T02:27:15.879Z,37.63
2022-12-11T02:29:51.900Z,49.85
2022-12-11T02:32:24.118Z,54.65
2022-12-11T02:34:59.527Z,44.90
2022-12-11T02:37:34.803Z,51.78
2022-12-11T02:40:11.260Z,53.85
2022-12-11T02:42:42.591Z,50.20
2022-12-11T02:45:20.957Z,56.25
2022-12-11T02:47:50.557Z,53.75
2022-12-11T02:50:24.552Z,46.80
2022-12-11T02:52:56.503Z,47.83
2022-12-11T02:55:27.793Z,46.95
2022-12-11T02:58:03.596Z,52.05
2022-12-11T03:00:34.074Z,50.42
2022-12-11T03:03:04.031Z,49.20
2022-12-11T03:05:35.384Z,48.08
2022-12-11T03:08:06.930Z,48.78
2022-12-11T03:10:36.185Z,47.42
2022-12-11T03:13:09.214Z,48.13
2022-12-11T03:15:50.061Z,48.67
2022-12-11T03:18:30.570Z,48.78
2022-12-11T03:21:06.861Z,54.88
2022-12-11T03:24:00.437Z,49.22
2022-12-11T03:26:40.726Z,47.78
2022-12-11T03:29:20.297Z,49.42
2022-12-11T03:32:04.683Z,57.35
2022-12-11T03:37:36.951Z,50.90
2022-12-11T03:40:12.299Z,50.42
2022-12-11T03:42:42.644Z,49.80
2022-12-11T03:45:15.845Z,51.97
2022-12-11T03:47:52.157Z,51.05
2022-12-11T03:50:30.633Z,45.75
2022-12-11T03:53:06.185Z,46.55
2022-12-11T03:55:37.639Z,54.53
2022-12-11T03:58:08.750Z,49.03
2022-12-11T04:00:37.743Z,50.30
2022-12-11T04:03:17.951Z,56.65
2022-12-11T04:05:54.855Z,55.97
2022-12-11T04:08:25.413Z,43.42
2022-12-11T04:11:09.375Z,48.72
2022-12-11T04:13:42.597Z,51.17
2022-12-11T04:16:10.653Z,41.93
2022-12-11T04:19:00.156Z,46.60
2022-12-11T04:21:54.416Z,48.00
2022-12-11T04:24:31.711Z,49.97
2022-12-11T04:27:03.211Z,54.63
2022-12-11T04:29:37.912Z,52.03
2022-12-11T04:32:09.437Z,53.05
2022-12-11T04:34:45.658Z,59.38
2022-12-11T04:37:16.201Z,49.65
2022-12-11T04:39:51.465Z,49.83
2022-12-11T04:42:23.065Z,55.13
2022-12-11T04:44:53.279Z,55.40
2022-12-11T04:47:26.194Z,52.50
2022-12-11T04:50:00.185Z,49.40
2022-12-11T04:52:32.078Z,53.45
2022-12-11T04:55:08.497Z,59.53
2022-12-11T04:57:43.053Z,58.83
2022-12-11T05:00:14.446Z,57.00
2022-12-11T05:03:05.720Z,57.45
2022-12-11T05:05:36.062Z,56.67
2022-12-11T05:08:12.974Z,57.47
2022-12-11T05:11:11.394Z,62.58
2022-12-11T05:13:42.921Z,62.53
2022-12-11T05:16:26.258Z,65.18
2022-12-11T05:22:20.548Z,72.35
2022-12-11T05:24:51.178Z,63.10
2022-12-11T05:27:20.358Z,71.63
2022-12-11T05:29:50.362Z,66.70
2022-12-11T05:32:29.358Z,74.18
2022-12-11T05:35:01.694Z,64.88
2022-12-11T05:37:54.685Z,64.63
2022-12-11T05:40:32.347Z,64.63
2022-12-11T05:43:19.220Z,58.50
2022-12-11T05:45:48.656Z,65.97
2022-12-11T05:48:27.050Z,64.50
2022-12-11T05:51:02.763Z,66.32
2022-12-11T05:56:25.045Z,71.78
2022-12-11T05:58:57.208Z,65.10
2022-12-11T06:01:27.543Z,66.35
2022-12-11T06:04:02.613Z,66.32
2022-12-11T06:06:31.048Z,67.45
2022-12-11T06:09:03.020Z,67.40
2022-12-11T06:11:33.717Z,57.63
2022-12-11T06:14:03.595Z,66.18
2022-12-11T06:16:32.588Z,65.82
2022-12-11T06:19:01.679Z,61.80
2022-12-11T06:21:31.166Z,61.55
2022-12-11T06:24:02.407Z,65.18
2022-12-11T06:26:32.093Z,70.38
2022-12-11T06:29:01.359Z,58.22
2022-12-11T06:31:29.926Z,61.50
2022-12-11T06:33:58.138Z,63.67
2022-12-11T06:36:26.619Z,65.55
2022-12-11T06:38:56.492Z,58.20
2022-12-11T06:41:26.635Z,62.63
2022-12-11T06:43:55.964Z,65.00
2022-12-11T06:46:24.402Z,66.47
2022-12-11T06:48:53.243Z,60.15
2022-12-11T06:51:24.059Z,57.33
2022-12-11T06:53:53.639Z,59.38
2022-12-11T06:56:22.611Z,60.45
2022-12-11T06:58:52.693Z,57.58
2022-12-11T07:01:24.352Z,56.20
2022-12-11T07:03:54.785Z,63.85
2022-12-11T07:06:23.681Z,65.22
2022-12-11T07:08:52.525Z,59.45
2022-12-11T07:11:24.480Z,58.40
2022-12-11T07:13:54.531Z,64.18
2022-12-11T07:16:23.534Z,65.47
2022-12-11T07:18:55.623Z,53.13
2022-12-11T07:21:23.883Z,59.92
2022-12-11T07:23:52.497Z,57.03
2022-12-11T07:26:23.374Z,64.00
2022-12-11T07:28:52.879Z,62.90
2022-12-11T07:31:24.848Z,61.13
2022-12-11T07:33:55.416Z,64.03
2022-12-11T07:36:24.357Z,55.53
2022-12-11T07:38:53.848Z,63.22
2022-12-11T07:41:23.226Z,65.68
2022-12-11T07:43:57.074Z,62.58
2022-12-11T07:46:28.914Z,76.93
2022-12-11T07:48:57.924Z,58.50
2022-12-11T07:51:28.132Z,61.33
2022-12-11T07:53:58.376Z,49.85
2022-12-11T07:56:27.500Z,55.80
2022-12-11T07:59:01.062Z,57.20
2022-12-11T08:01:31.413Z,63.65
2022-12-11T08:04:00.293Z,60.90
2022-12-11T08:06:35.346Z,57.70
2022-12-11T08:11:33.898Z,58.58
2022-12-11T08:14:06.892Z,65.38
2022-12-11T08:16:35.669Z,58.70
2022-12-11T08:19:04.027Z,59.00
2022-12-11T08:21:32.146Z,58.90
2022-12-11T08:24:00.473Z,61.80
2022-12-11T08:26:31.369Z,63.30
2022-12-11T08:29:00.870Z,58.47
2022-12-11T08:31:30.574Z,54.58
2022-12-11T08:33:59.487Z,60.10
2022-12-11T08:36:28.068Z,60.22
2022-12-11T08:38:57.520Z,60.80
2022-12-11T08:41:28.329Z,70.80
2022-12-11T08:43:58.812Z,62.00
2022-12-11T08:46:28.734Z,58.85
2022-12-11T08:48:59.206Z,67.85
2022-12-11T08:51:29.835Z,63.83
2022-12-11T08:54:01.724Z,53.35
2022-12-11T08:56:30.919Z,65.60
2022-12-11T08:59:01.274Z,63.50
2022-12-11T09:01:30.786Z,65.60
2022-12-11T09:04:00.662Z,68.55
2022-12-11T09:06:31.197Z,72.68
2022-12-11T09:09:02.265Z,71.57
2022-12-11T09:11:33.283Z,63.75
2022-12-11T09:14:07.103Z,65.68
2022-12-11T09:16:41.835Z,63.47
2022-12-11T09:19:17.055Z,58.77
2022-12-11T09:21:46.368Z,69.18
2022-12-11T09:24:20.394Z,71.60
2022-12-11T09:26:50.627Z,71.70
2022-12-11T09:29:18.831Z,69.38
2022-12-11T09:31:47.447Z,72.22
2022-12-11T09:34:17.491Z,72.75
2022-12-11T09:36:45.973Z,68.97
2022-12-11T09:39:17.453Z,76.78
2022-12-11T09:41:55.320Z,76.50
2022-12-11T09:44:35.205Z,79.25
2022-12-11T09:47:03.934Z,80.95
2022-12-11T09:49:40.179Z,77.38
2022-12-11T09:52:15.253Z,86.28
2022-12-11T09:57:27.799Z,78.03
2022-12-11T10:00:11.325Z,74.05
2022-12-11T10:03:20.129Z,74.45
2022-12-11T10:05:57.379Z,65.68
2022-12-11T10:08:35.218Z,75.88
2022-12-11T10:11:17.521Z,71.60
2022-12-11T10:13:53.634Z,74.20
2022-12-11T10:16:33.722Z,70.28
2022-12-11T10:19:04.223Z,73.28
2022-12-11T10:21:42.474Z,69.95
2022-12-11T10:24:40.830Z,72.25
2022-12-11T10:27:17.099Z,69.78
2022-12-11T10:29:45.778Z,64.32
2022-12-11T10:32:24.709Z,68.63
2022-12-11T10:35:01.039Z,70.40
2022-12-11T10:37:30.800Z,64.03
2022-12-11T10:39:58.867Z,71.82
2022-12-11T10:42:27.311Z,64.65
2022-12-11T10:45:00.741Z,65.28
2022-12-11T10:47:30.082Z,62.72
2022-12-11T10:50:00.822Z,65.53
2022-12-11T10:52:34.545Z,57.22
2022-12-11T10:55:06.326Z,56.35
2022-12-11T10:57:37.835Z,64.95
2022-12-11T11:00:09.841Z,63.03
2022-12-11T11:02:40.517Z,61.25
2022-12-11T11:05:17.633Z,63.42
2022-12-11T11:07:47.625Z,63.95
2022-12-11T11:10:18.438Z,64.82
2022-12-11T11:12:49.122Z,60.83
2022-12-11T11:15:21.040Z,58.25
2022-12-11T11:17:55.536Z,58.35
2022-12-11T11:22:58.713Z,55.95
2022-12-11T11:25:30.321Z,59.85
2022-12-11T11:28:00.984Z,57.42
2022-12-11T11:30:31.314Z,55.92
2022-12-11T11:33:03.765Z,54.33
2022-12-11T11:35:33.372Z,60.53
2022-12-11T11:38:15.223Z,59.58
2022-12-11T11:40:53.036Z,50.75
2022-12-11T11:43:37.390Z,50.65
2022-12-11T11:46:11.743Z,56.90
2022-12-11T11:48:47.034Z,57.13
2022-12-11T11:51:18.105Z,57.92
2022-12-11T11:53:51.686Z,54.00
2022-12-11T11:56:23.564Z,57.88
2022-12-11T11:59:02.929Z,59.88
2022-12-11T12:01:32.489Z,56.45
2022-12-11T12:04:03.983Z,56.10
2022-12-11T12:06:50.717Z,58.40
2022-12-11T12:09:33.351Z,57.70
2022-12-11T12:12:24.697Z,58.13
2022-12-11T12:15:05.736Z,54.13
2022-12-11T12:17:41.584Z,60.03
2022-12-11T12:20:20.624Z,56.92
2022-12-11T12:23:04.410Z,57.22
2022-12-11T12:25:41.560Z,55.80
2022-12-11T12:28:22.978Z,62.15
2022-12-11T12:31:07.846Z,66.55
2022-12-11T12:33:49.470Z,63.17
2022-12-11T12:36:28.911Z,67.28
2022-12-11T12:39:03.180Z,56.53
2022-12-11T12:41:41.657Z,60.93
2022-12-11T12:44:18.522Z,64.05
2022-12-11T12:47:02.230Z,65.25
2022-12-11T12:49:38.601Z,65.47
2022-12-11T12:52:11.627Z,57.65
2022-12-11T12:54:41.943Z,59.60
2022-12-11T12:57:12.403Z,59.70
2022-12-11T12:59:40.899Z,60.00
2022-12-11T13:02:18.277Z,61.65
2022-12-11T13:04:59.012Z,65.00
2022-12-11T13:07:30.879Z,63.20
2022-12-11T13:10:07.361Z,63.90
2022-12-11T13:12:46.106Z,59.47
2022-12-11T13:15:29.563Z,61.70
2022-12-11T13:17:59.095Z,62.55
2022-12-11T13:20:30.660Z,66.43
2022-12-11T13:23:18.829Z,63.50
2022-12-11T13:25:51.096Z,63.22
2022-12-11T13:28:27.409Z,53.15
2022-12-11T13:31:02.349Z,57.38
2022-12-11T13:33:32.111Z,55.22
2022-12-11T13:36:24.948Z,59.47
2022-12-11T13:38:57.295Z,56.03
2022-12-11T13:41:26.152Z,58.03
2022-12-11T13:43:56.971Z,58.03
2022-12-11T13:46:29.493Z,59.80
2022-12-11T13:49:01.125Z,63.88
2022-12-11T13:51:33.695Z,59.22
2022-12-11T13:54:17.617Z,56.25
2022-12-11T13:56:58.288Z,57.97
2022-12-11T13:59:33.388Z,64.20
2022-12-11T14:02:13.738Z,58.70
2022-12-11T14:04:43.472Z,61.78
2022-12-11T14:07:12.969Z,62.22
2022-12-11T14:09:45.655Z,59.17
2022-12-11T14:12:19.378Z,60.75
2022-12-11T14:14:52.737Z,59.45
2022-12-11T14:17:27.245Z,73.00
2022-12-11T14:19:58.072Z,74.10
2022-12-11T14:22:29.364Z,63.33
2022-12-11T14:24:59.661Z,60.92
2022-12-11T14:27:29.303Z,61.47
2022-12-11T14:29:59.581Z,73.20
2022-12-11T14:32:36.567Z,70.32
2022-12-11T14:35:12.594Z,67.80
2022-12-11T14:37:42.046Z,82.00
2022-12-11T14:40:16.271Z,72.20
2022-12-11T14:42:49.177Z,68.97
2022-12-11T14:45:24.400Z,66.43
2022-12-11T14:47:54.392Z,76.03
2022-12-11T14:50:27.730Z,72.63
2022-12-11T14:53:00.134Z,74.07
2022-12-11T14:55:31.018Z,71.88
2022-12-11T14:58:04.943Z,70.60
2022-12-11T15:00:37.618Z,77.68
2022-12-11T15:03:08.333Z,71.70
2022-12-11T15:05:40.972Z,75.75
2022-12-11T15:08:24.779Z,70.93
2022-12-11T15:11:07.041Z,74.55
2022-12-11T15:13:38.704Z,73.85
2022-12-11T15:16:10.651Z,70.25
2022-12-11T15:18:43.315Z,78.95
2022-12-11T15:21:14.401Z,64.80
2022-12-11T15:23:52.698Z,65.60
2022-12-11T15:26:21.718Z,65.95
2022-12-11T15:29:01.387Z,70.45
2022-12-11T15:31:33.104Z,55.22
2022-12-11T15:34:01.687Z,67.43
2022-12-11T15:36:35.853Z,71.97
2022-12-11T15:39:05.680Z,58.30
2022-12-11T15:41:35.017Z,69.10
2022-12-11T15:44:05.564Z,77.72
2022-12-11T15:46:38.884Z,76.72
2022-12-11T15:49:12.614Z,71.10
2022-12-11T15:51:43.361Z,68.30
2022-12-11T15:54:12.133Z,75.90
2022-12-11T15:56:41.165Z,77.55
2022-12-11T15:59:11.187Z,79.35
2022-12-11T16:01:41.510Z,74.30
2022-12-11T16:04:10.024Z,66.63
2022-12-11T16:06:38.435Z,67.82
2022-12-11T16:09:07.727Z,71.30
2022-12-11T16:11:36.457Z,69.75
2022-12-11T16:14:04.974Z,80.05
2022-12-11T16:16:36.027Z,69.97
2022-12-11T16:19:06.095Z,57.95
2022-12-11T16:21:34.683Z,59.83
2022-12-11T16:24:03.367Z,63.72
2022-12-11T16:26:32.098Z,63.00
2022-12-11T16:29:03.893Z,69.22
2022-12-11T16:31:33.100Z,62.50
2022-12-11T16:34:01.341Z,66.40
2022-12-11T16:36:31.074Z,73.40
2022-12-11T16:38:59.357Z,69.13
2022-12-11T16:41:28.182Z,75.43
2022-12-11T16:43:58.112Z,64.55
2022-12-11T16:46:26.567Z,69.60
2022-12-11T16:48:55.604Z,70.03
2022-12-11T16:51:24.582Z,60.53
2022-12-11T16:53:54.323Z,70.60
2022-12-11T16:56:22.768Z,64.38
2022-12-11T16:58:52.055Z,67.35
2022-12-11T17:01:21.030Z,61.70
2022-12-11T17:03:49.749Z,57.38
2022-12-11T17:06:19.425Z,63.00
2022-12-11T17:08:48.140Z,63.42
2022-12-11T17:11:20.255Z,65.95
2022-12-11T17:13:50.290Z,60.33
2022-12-11T17:16:19.156Z,68.07
2022-12-11T17:18:48.425Z,64.57
2022-12-11T17:21:20.447Z,66.85
2022-12-11T17:23:50.714Z,59.08
2022-12-11T17:26:21.571Z,58.05
2022-12-11T17:28:50.327Z,69.18
2022-12-11T17:31:20.602Z,66.30
2022-12-11T17:33:50.087Z,62.80
2022-12-11T17:36:21.452Z,64.68
2022-12-11T17:38:51.123Z,69.43
2022-12-11T17:41:22.297Z,66.57
2022-12-11T17:43:51.795Z,59.03
2022-12-11T17:46:21.245Z,58.05
2022-12-11T17:48:50.134Z,65.72
2022-12-11T17:51:24.240Z,67.70
2022-12-11T17:53:55.899Z,64.13
2022-12-11T17:56:26.447Z,64.35
2022-12-11T17:58:55.526Z,60.90
2022-12-11T18:01:25.551Z,56.30
2022-12-11T18:03:53.937Z,70.85
2022-12-11T18:06:25.473Z,69.80
2022-12-11T18:08:54.408Z,80.63
2022-12-11T18:11:23.498Z,61.10
2022-12-11T18:13:54.895Z,69.30
2022-12-11T18:16:26.485Z,60.25
2022-12-11T18:18:56.843Z,66.60
2022-12-11T18:21:30.491Z,67.38
2022-12-11T18:24:01.842Z,69.15
2022-12-11T18:26:30.652Z,71.28
2022-12-11T18:29:00.500Z,68.00
2022-12-11T18:31:29.273Z,68.05
2022-12-11T18:33:59.116Z,67.85
2022-12-11T18:36:34.335Z,69.90
2022-12-11T18:39:03.776Z,68.95
2022-12-11T18:41:34.134Z,74.55
2022-12-11T18:44:09.470Z,73.95
2022-12-11T18:46:39.416Z,75.40
2022-12-11T18:49:08.268Z,71.55
2022-12-11T18:51:37.645Z,97.90
2022-12-11T18:54:06.063Z,85.03
2022-12-11T18:56:34.384Z,75.45
2022-12-11T18:59:04.779Z,99.68
2022-12-11T19:01:34.694Z,98.57
2022-12-11T19:04:07.849Z,95.40
2022-12-11T19:06:40.135Z,92.25
2022-12-11T19:09:10.347Z,82.22
2022-12-11T19:11:41.787Z,94.57
2022-12-11T19:14:12.745Z,94.32
2022-12-11T19:16:45.876Z,80.95
2022-12-11T19:19:17.836Z,61.08
2022-12-11T19:21:47.213Z,69.38
2022-12-11T19:24:17.790Z,75.22
2022-12-11T19:26:46.589Z,82.70
2022-12-11T19:29:24.137Z,78.65
2022-12-11T19:31:54.432Z,75.43
2022-12-11T19:34:24.623Z,78.55
2022-12-11T19:36:54.065Z,65.57
2022-12-11T19:39:22.649Z,67.78
2022-12-11T19:41:51.762Z,69.68
2022-12-11T19:44:22.716Z,72.97
2022-12-11T19:46:55.479Z,67.93
2022-12-11T19:49:24.134Z,68.40
2022-12-11T19:51:53.679Z,67.72
2022-12-11T19:54:22.849Z,72.15
2022-12-11T19:56:52.121Z,70.03
2022-12-11T19:59:22.232Z,67.38
2022-12-11T20:01:51.580Z,70.93
2022-12-11T20:04:20.625Z,66.57
2022-12-11T20:06:50.129Z,78.43
2022-12-11T20:09:19.580Z,72.70
2022-12-11T20:11:49.342Z,83.28
2022-12-11T20:14:24.823Z,76.70
2022-12-11T20:17:14.563Z,78.40
2022-12-11T20:19:44.175Z,73.03
2022-12-11T20:22:14.727Z,74.60
2022-12-11T20:24:44.286Z,76.43
2022-12-11T20:27:12.866Z,81.47
2022-12-11T20:29:42.981Z,76.43
2022-12-11T20:32:12.586Z,77.50
2022-12-11T20:34:42.537Z,78.15
2022-12-11T20:37:13.461Z,78.38
2022-12-11T20:39:42.532Z,73.22
2022-12-11T20:42:12.050Z,68.35
2022-12-11T20:44:44.161Z,69.00
2022-12-11T20:47:24.526Z,73.07
2022-12-11T20:49:54.464Z,67.13
2022-12-11T20:52:23.158Z,67.65
2022-12-11T20:54:51.760Z,73.00
2022-12-11T20:57:20.059Z,71.53
2022-12-11T20:59:49.854Z,64.72
2022-12-11T21:02:19.547Z,66.80
2022-12-11T21:04:48.356Z,71.22
2022-12-11T21:07:16.707Z,71.05
2022-12-11T21:09:45.608Z,66.10
2022-12-11T21:12:14.661Z,60.80
2022-12-11T21:14:43.845Z,64.45
2022-12-11T21:17:12.434Z,66.32
2022-12-11T21:19:42.562Z,73.28
2022-12-11T21:22:11.427Z,69.10
2022-12-11T21:24:41.002Z,62.10
2022-12-11T21:27:09.598Z,64.38
2022-12-11T21:29:38.153Z,58.53
2022-12-11T21:32:07.120Z,65.68
2022-12-11T21:34:35.560Z,70.90
2022-12-11T21:37:07.272Z,79.18
2022-12-11T21:39:39.306Z,68.78
2022-12-11T21:42:08.184Z,64.70
2022-12-11T21:45:31.303Z,61.38
2022-12-11T21:47:29.068Z,64.93
2022-12-11T21:49:57.473Z,66.75
2022-12-11T21:52:27.275Z,68.18
2022-12-11T21:54:57.051Z,72.47
2022-12-11T21:57:27.584Z,68.55
2022-12-11T21:59:56.570Z,60.05
2022-12-11T22:02:25.673Z,65.22
2022-12-11T22:04:54.575Z,69.85
2022-12-11T22:07:23.665Z,66.28
2022-12-11T22:09:53.327Z,62.50
2022-12-11T22:12:24.069Z,65.22
2022-12-11T22:14:53.540Z,65.63
2022-12-11T22:17:22.767Z,66.35
2022-12-11T22:19:52.271Z,71.53
2022-12-11T22:22:21.823Z,67.88
2022-12-11T22:24:51.499Z,70.22
2022-12-11T22:27:23.844Z,64.75
2022-12-11T22:29:53.120Z,68.78
2022-12-11T22:32:23.985Z,51.42
2022-12-11T22:34:52.282Z,70.90
2022-12-11T22:37:21.055Z,65.45
2022-12-11T22:39:49.969Z,65.82
2022-12-11T22:42:18.674Z,66.07
2022-12-11T22:44:48.925Z,62.92
2022-12-11T22:47:18.462Z,64.93
2022-12-11T22:49:47.062Z,67.43
2022-12-11T22:52:15.555Z,64.28
2022-12-11T22:54:45.001Z,65.55
2022-12-11T22:57:14.403Z,70.38
2022-12-11T22:59:42.926Z,67.22
2022-12-11T23:02:12.955Z,68.43
2022-12-11T23:04:41.701Z,61.92
2022-12-11T23:07:10.048Z,62.75
2022-12-11T23:09:38.466Z,47.22
2022-12-11T23:12:07.285Z,65.72
2022-12-11T23:14:35.723Z,68.60
2022-12-11T23:17:04.258Z,64.18
2022-12-11T23:19:35.020Z,65.40
2022-12-11T23:22:03.527Z,59.72
2022-12-11T23:24:32.064Z,55.60
2022-12-11T23:27:01.383Z,66.45
2022-12-11T23:29:29.910Z,60.38
2022-12-11T23:31:58.586Z,61.20
2022-12-11T23:34:27.122Z,63.13
2022-12-11T23:36:57.598Z,59.22
2022-12-11T23:39:26.307Z,57.92
2022-12-11T23:41:54.843Z,56.00
2022-12-11T23:44:23.628Z,58.80
2022-12-11T23:46:52.148Z,66.00
2022-12-11T23:49:20.533Z,61.35
2022-12-11T23:51:48.855Z,64.68
2022-12-11T23:54:18.831Z,65.50
2022-12-11T23:56:47.078Z,61.90
2022-12-11T23:59:16.184Z,63.72
